Home   Weather   United Kingdom   Leeds   Past weeks
Flag for United Kingdom

Past Weather in Leeds, England, United Kingdom — Yesterday and Last 2 Weeks

Currently: 63 °F. Sunny. (Weather station: Leeds And Bradford, United Kingdom). See more current weather

Past Weather in Leeds — Graph

°F

Leeds Temperature Yesterday

Maximum temperature yesterday: 84 °F (at 3:50 pm)
Minimum temperature yesterday: 61 °F (at 3:50 am)
Average temperature yesterday: 72 °F

High & Low Weather Summary for the Past Weeks

 TemperatureHumidityPressure
High86 °F (Aug 11, 3:50 pm)100% (Jul 29, 9:20 am)30.45 "Hg (Jul 29, 9:20 am)
Low48 °F (Aug 5, 4:50 am)22% (Aug 9, 5:50 pm)29.74 "Hg (Aug 3, 2:20 am)
Average64 °F71%30.13 "Hg
* Reported Jul 29 7:20 am — Aug 13 7:20 am, Leeds. Weather by CustomWeather, © 2022

Note: Actual official high and low records may vary slightly from our data, if they occured in-between our weather recording intervals... More about our weather records

Leeds Weather History for the Previous 24 Hours

Scroll right to see more
 ConditionsComfort  
Time TempWeatherWind HumidityBarometerVisibility
7:20 am
Sat, Aug 13
61 °FSunny.7 mph72%30.09 "Hg10 mi
6:50 am61 °FSunny.6 mph72%30.09 "Hg10 mi
6:20 am59 °FSunny.5 mph77%30.09 "Hg10 mi
5:50 am59 °FSunny.5 mph77%30.09 "Hg10 mi
5:20 am59 °FClear.6 mph77%30.09 "Hg10 mi
4:50 am59 °FClear.5 mph77%30.09 "Hg10 mi
4:20 am59 °FClear.3 mph77%30.09 "Hg10 mi
3:50 am59 °FClear.5 mph77%30.09 "Hg10 mi
3:20 am59 °FClear.5 mph77%30.09 "Hg10 mi
2:50 am59 °FClear.5 mph77%30.09 "Hg10 mi
2:20 am59 °FClear.5 mph77%30.09 "Hg10 mi
1:50 am61 °FClear.3 mph68%30.09 "Hg10 mi
12:20 am63 °FClear.3 mph64%30.12 "Hg10 mi
11:50 pm
Fri, Aug 12
63 °FClear.3 mph64%30.12 "Hg10 mi
11:20 pm63 °FClear.5 mph64%30.12 "Hg10 mi
10:50 pm64 °FClear.5 mph60%30.12 "Hg10 mi
10:20 pm64 °FClear.5 mph60%30.12 "Hg10 mi
9:50 pm68 °FClear.6 mph53%30.12 "Hg10 mi
9:20 pm70 °FClear.7 mph50%30.12 "Hg10 mi
8:20 pm73 °FSunny.7 mph50%30.09 "Hg10 mi
7:50 pm75 °FSunny.10 mph44%30.09 "Hg10 mi
7:20 pm77 °FSunny.10 mph44%30.09 "Hg10 mi
6:50 pm79 °FPassing clouds.12 mph42%30.09 "HgN/A
6:20 pm81 °FPassing clouds.10 mph37%30.09 "HgN/A
5:50 pm81 °FPassing clouds.10 mph37%30.09 "HgN/A
5:20 pm82 °FPassing clouds.8 mph37%30.09 "HgN/A
4:50 pm82 °FSunny.10 mph32%30.09 "Hg10 mi
4:20 pm84 °FPassing clouds.8 mph33%30.12 "HgN/A
3:50 pm84 °FPassing clouds.8 mph29%30.12 "HgN/A
3:20 pm82 °FSunny.6 mph30%30.12 "Hg10 mi
2:50 pm82 °FPassing clouds.8 mph30%30.12 "HgN/A
2:20 pm82 °FPassing clouds.8 mph32%30.12 "HgN/A
1:50 pm81 °FPassing clouds.7 mph37%30.15 "HgN/A
1:20 pm81 °FPassing clouds.8 mph37%30.15 "HgN/A
12:50 pm79 °FPassing clouds.7 mph42%30.15 "HgN/A
12:20 pm79 °FPassing clouds.7 mph42%30.15 "HgN/A
11:50 am77 °FPassing clouds.6 mph47%30.18 "HgN/A
11:20 am77 °FPassing clouds.6 mph47%30.18 "HgN/A
10:50 am73 °FPassing clouds.5 mph53%30.18 "HgN/A
10:20 am72 °FPassing clouds.5 mph57%30.18 "HgN/A
9:50 am70 °FPassing clouds.3 mph60%30.18 "HgN/A
9:20 am68 °FPassing clouds.6 mph64%30.18 "HgN/A
8:50 am66 °FSunny.6 mph68%30.21 "Hg10 mi
8:20 am64 °FPassing clouds.6 mph73%30.21 "HgN/A
Weather by CustomWeather, © 2022

See weather overview